ADDS METAR Data INFO
IDs: Format: Raw Decoded Include TAF

Data at: 0317 UTC 16 Dec 2017

KODO 160253Z AUTO 19006KT 10SM CLR 04/M03 A3019 RMK AO2 SLP221 T00391033 58004
KODO 160153Z AUTO 21005KT 10SM CLR 04/M03 A3020 RMK AO2 SLP227 T00441033
KODO 160053Z AUTO 20007KT 10SM CLR 06/M03 A3021 RMK AO2 SLP227 T00611033
KODO 152353Z AUTO 23006KT 10SM CLR 08/M04 A3020 RMK AO2 SLP222 T00831039 10111 20078 56005
KODO 152253Z AUTO 21011KT 10SM CLR 11/M04 A3020 RMK AO2 SLP218 T01061044
KODO 152153Z AUTO 23007KT 10SM CLR 11/M04 A3021 RMK AO2 SLP220 T01111044
KODO 152053Z AUTO 26007KT 10SM CLR 11/M04 A3022 RMK AO2 SLP224 T01111044 56040
KODO 151953Z AUTO 25008KT 10SM CLR 11/M04 A3025 RMK AO2 SLP235 T01061044
KODO 151853Z AUTO 20006KT 10SM CLR 09/M04 A3030 RMK AO2 SLP252 T00941044
KODO 151753Z AUTO VRB04KT 10SM CLR 08/M04 A3035 RMK AO2 SLP272 T00781039 10083 21011 58002
KODO 151653Z AUTO 20006KT 10SM CLR 07/M04 A3038 RMK AO2 SLP283 T00671039
KODO 151553Z AUTO 00000KT 10SM CLR 04/M03 A3036 RMK AO2 SLP280 T00441028
KODO 151453Z AUTO 35003KT 10SM CLR 02/M03 A3035 RMK AO2 SLP278 T00171028 53008
KODO 151353Z AUTO 36004KT 10SM CLR M01/M04 A3035 RMK AO2 SLP278 T10111039
KODO 151253Z AUTO 36008KT 10SM CLR 00/M03 A3033 RMK AO2 SLP270 T00001033
KODO 151153Z AUTO 35007KT 10SM CLR 00/M03 A3033 RMK AO2 SLP265 T00001028 10017 21006 53004
KODO 151053Z AUTO 35005KT 10SM CLR 01/M03 A3033 RMK AO2 SLP262 T00111028
KODO 150953Z AUTO 01006KT 10SM BKN120 01/M03 A3031 RMK AO2 SLP255 T00061033
KODO 150853Z AUTO 02006KT 10SM SCT100 01/M03 A3032 RMK AO2 SLP255 T00061033 53004
KODO 150753Z AUTO 01008KT 10SM CLR 01/M04 A3030 RMK AO2 SLP252 T00061039
KODO 150653Z AUTO 02008KT 10SM CLR 01/M06 A3029 RMK AO2 SLP249 T00111056
KODO 150553Z AUTO 02009KT 10SM CLR 01/M05 A3030 RMK AO2 SLP254 T00111050 10083 20011 401330000 51023
KODO 150453Z AUTO 02009KT 10SM CLR 02/M05 A3029 RMK AO2 SLP248 T00221050
KODO 150353Z AUTO 02006KT 10SM CLR 02/M05 A3026 RMK AO2 SLP242 T00171050
KODO 150253Z AUTO 03007KT 10SM CLR 04/M05 A3023 RMK AO2 SLP232 T00391050 51028
KODO 150153Z AUTO 05009KT 10SM CLR 04/M05 A3020 RMK AO2 SLP223 T00441050
KODO 150053Z AUTO 07006KT 10SM CLR 05/M06 A3017 RMK AO2 SLP215 T00501056
KODO 142353Z AUTO 05010KT 10SM CLR 08/M06 A3014 RMK AO2 SLP198 T00831056 10133 20083 53013
KODO 142253Z AUTO 07013KT 10SM CLR 12/M06 A3011 RMK AO2 SLP187 T01171061
KODO 142153Z AUTO 05013KT 10SM CLR 13/M06 A3011 RMK AO2 SLP184 T01281056
KODO 142053Z AUTO 07012KT 10SM CLR 13/M05 A3010 RMK AO2 SLP180 T01331050 55006
KODO 141953Z AUTO 06014G24KT 10SM CLR 13/M05 A3009 RMK AO2 SLP177 T01281050
KODO 141853Z AUTO 06017G23KT 10SM CLR 12/M05 A3010 RMK AO2 SLP179 T01171050
KODO 141753Z AUTO 07019G23KT 10SM CLR 10/M06 A3012 RMK AO2 SLP186 T01001056 10100 20000 50019
KODO 141653Z AUTO 06017KT 10SM CLR 09/M06 A3012 RMK AO2 SLP187 T00891056
KODO 141553Z AUTO 05015KT 10SM CLR 07/M06 A3011 RMK AO2 SLP183 T00671056